Time;durP1;ratioP1;P1;durP2;ratioP2;P2;SDS_P1;SDS_P2;PMS_P1;PMS_P2;Temp;Humidity;BMP_temperature;BMP_pressure;BME280_temperature;BME280_humidity;BME280_pressure;Samples;Min_cycle;Max_cycle;Signal;HPM_P1;HPM_P2
2022/08/01 00:00:39;;;;;;;3.50;2.60;;;28.70;38.30;;;;;;4977000;28;20441;-51
2022/08/01 00:03:05;;;;;;;2.50;2.27;;;28.70;38.10;;;;;;4985161;28;20245;-47
2022/08/01 00:05:31;;;;;;;3.40;2.73;;;28.70;38.30;;;;;;4983946;28;20274;-47
2022/08/01 00:07:57;;;;;;;3.17;2.40;;;28.70;38.30;;;;;;4985425;28;20712;-48
2022/08/01 00:10:29;;;;;;;2.60;2.40;;;28.70;38.40;;;;;;4982736;28;20442;-50
2022/08/01 00:12:54;;;;;;;2.97;2.70;;;28.70;38.50;;;;;;4988404;28;20281;-47
2022/08/01 00:15:20;;;;;;;3.60;2.80;;;28.50;38.80;;;;;;4982114;28;20534;-47
2022/08/01 00:17:46;;;;;;;2.70;2.50;;;28.50;39.00;;;;;;4980351;28;20198;-49
2022/08/01 00:20:13;;;;;;;3.23;2.93;;;28.50;39.00;;;;;;4986180;28;20194;-49
2022/08/01 00:22:39;;;;;;;3.30;3.10;;;28.40;38.90;;;;;;4987896;28;20549;-51
2022/08/01 00:25:06;;;;;;;2.67;2.53;;;28.40;39.10;;;;;;4976231;28;20501;-49
2022/08/01 00:27:32;;;;;;;3.27;2.97;;;28.40;39.00;;;;;;4973098;28;20470;-49
2022/08/01 00:29:58;;;;;;;3.87;2.53;;;28.50;39.10;;;;;;4983837;28;20451;-47
2022/08/01 00:32:24;;;;;;;4.53;3.13;;;28.50;38.90;;;;;;4977214;28;20434;-50
2022/08/01 00:34:50;;;;;;;4.00;3.60;;;28.40;38.90;;;;;;4978262;28;20451;-47
2022/08/01 00:37:16;;;;;;;2.90;2.70;;;28.50;39.00;;;;;;4982255;28;20212;-48
2022/08/01 00:39:41;;;;;;;4.07;2.37;;;28.40;39.10;;;;;;4986030;28;21322;-50
2022/08/01 00:42:09;;;;;;;4.40;2.90;;;28.40;39.20;;;;;;4981458;28;20493;-51
2022/08/01 00:44:35;;;;;;;3.07;2.87;;;28.40;39.10;;;;;;4985406;28;20705;-46
2022/08/01 00:47:01;;;;;;;2.70;2.50;;;28.40;39.10;;;;;;4990305;28;20465;-49
2022/08/01 00:49:27;;;;;;;3.57;2.80;;;28.40;39.10;;;;;;4988134;28;20217;-46
2022/08/01 00:51:53;;;;;;;2.93;2.63;;;28.40;39.00;;;;;;4989883;28;20446;-47
2022/08/01 00:54:31;;;;;;;2.70;2.50;;;28.40;39.60;;;;;;4985312;28;20454;-51
2022/08/01 00:56:58;;;;;;;2.93;2.73;;;28.40;39.20;;;;;;4975572;28;20457;-47
2022/08/01 00:59:24;;;;;;;3.20;2.50;;;28.40;39.30;;;;;;4985830;28;20452;-51
2022/08/01 01:01:50;;;;;;;3.20;2.73;;;28.40;39.40;;;;;;4983254;28;20471;-50
2022/08/01 01:04:17;;;;;;;3.00;2.80;;;28.40;39.30;;;;;;4985451;28;20469;-49
2022/08/01 01:06:48;;;;;;;2.93;2.73;;;28.40;39.30;;;;;;4986881;28;20332;-47
2022/08/01 01:09:24;;;;;;;4.30;2.60;;;28.40;39.40;;;;;;4979171;28;20481;-46
2022/08/01 01:12:05;;;;;;;3.60;2.53;;;28.30;39.60;;;;;;4987809;28;20457;-46
2022/08/01 01:14:37;;;;;;;5.20;2.40;;;28.30;39.40;;;;;;4982376;28;20445;-49
2022/08/01 01:17:07;;;;;;;2.77;2.40;;;28.30;39.30;;;;;;4984836;28;20461;-48
2022/08/01 01:19:38;;;;;;;2.77;2.53;;;28.30;39.50;;;;;;4985671;28;20438;-50
2022/08/01 01:22:13;;;;;;;2.90;2.70;;;28.30;39.50;;;;;;4984877;28;20442;-49
2022/08/01 01:24:51;;;;;;;3.10;2.80;;;28.30;39.70;;;;;;4987059;28;20449;-48
2022/08/01 01:27:36;;;;;;;3.10;2.90;;;28.30;39.60;;;;;;4987804;28;20615;-47
2022/08/01 01:30:03;;;;;;;2.70;2.50;;;28.20;39.90;;;;;;4982101;28;20485;-50
2022/08/01 01:32:39;;;;;;;2.70;2.50;;;28.20;40.00;;;;;;4983926;28;20945;-50
2022/08/01 01:35:15;;;;;;;2.90;2.70;;;28.10;40.20;;;;;;4984902;28;20461;-49
2022/08/01 01:37:43;;;;;;;3.07;2.67;;;28.10;40.10;;;;;;4984961;28;20469;-46
2022/08/01 01:40:10;;;;;;;3.50;2.70;;;28.10;40.00;;;;;;4985047;28;20441;-50
2022/08/01 01:42:38;;;;;;;3.07;2.87;;;28.20;40.00;;;;;;4986855;28;20446;-46
2022/08/01 01:45:05;;;;;;;2.80;2.60;;;28.10;40.20;;;;;;4986533;28;20465;-46
2022/08/01 01:47:36;;;;;;;3.37;3.10;;;28.10;40.40;;;;;;4978228;28;20449;-50
2022/08/01 01:50:02;;;;;;;2.77;2.57;;;27.80;40.70;;;;;;4986059;28;20476;-48
2022/08/01 01:52:31;;;;;;;3.77;3.40;;;27.90;40.60;;;;;;4988836;28;20450;-48
2022/08/01 01:54:58;;;;;;;3.30;3.00;;;28.00;40.60;;;;;;4985102;28;20456;-48
2022/08/01 01:57:24;;;;;;;2.63;2.43;;;27.90;40.60;;;;;;4979664;28;20435;-46
2022/08/01 01:59:52;;;;;;;3.53;3.07;;;27.80;40.90;;;;;;4975943;28;20479;-48
2022/08/01 02:02:19;;;;;;;3.63;3.33;;;27.90;40.70;;;;;;4983149;28;20493;-46
2022/08/01 02:04:47;;;;;;;3.07;2.83;;;27.90;40.70;;;;;;4986780;28;20457;-47
2022/08/01 02:07:17;;;;;;;3.10;2.83;;;27.80;41.00;;;;;;4987069;28;20484;-48
2022/08/01 02:09:43;;;;;;;3.23;3.00;;;27.70;41.30;;;;;;4979039;28;20460;-48
2022/08/01 02:12:14;;;;;;;5.70;2.83;;;27.60;41.40;;;;;;4983930;28;20987;-48
2022/08/01 02:14:42;;;;;;;2.93;2.73;;;27.50;41.60;;;;;;4979728;28;20462;-47
2022/08/01 02:17:15;;;;;;;3.07;2.77;;;27.50;41.70;;;;;;4987631;28;20446;-47
2022/08/01 02:19:41;;;;;;;3.33;3.13;;;27.50;41.70;;;;;;4986631;28;20459;-46
2022/08/01 02:22:33;;;;;;;3.47;3.17;;;27.50;41.70;;;;;;4986045;28;20446;-48
2022/08/01 02:25:18;;;;;;;3.27;3.07;;;27.50;42.00;;;;;;4979172;28;20215;-46
2022/08/01 02:27:57;;;;;;;2.90;2.70;;;27.50;42.10;;;;;;4985522;28;20884;-45
2022/08/01 02:30:25;;;;;;;3.37;3.17;;;27.30;42.20;;;;;;4977149;28;20450;-46
2022/08/01 02:33:02;;;;;;;3.17;2.90;;;27.30;42.50;;;;;;4985864;28;20445;-47
2022/08/01 02:35:32;;;;;;;2.83;2.50;;;27.30;42.60;;;;;;4990219;28;20481;-47
2022/08/01 02:38:00;;;;;;;3.33;3.03;;;27.30;42.40;;;;;;4984502;28;20477;-50
2022/08/01 02:40:29;;;;;;;3.20;3.00;;;27.30;42.60;;;;;;4981816;28;20438;-46
2022/08/01 02:42:56;;;;;;;3.17;2.87;;;27.30;42.50;;;;;;4981809;28;20450;-47
2022/08/01 02:45:25;;;;;;;3.33;3.13;;;27.30;42.50;;;;;;4980882;28;20576;-46
2022/08/01 02:47:53;;;;;;;2.73;2.53;;;27.40;42.50;;;;;;4980344;28;20442;-45
2022/08/01 02:50:20;;;;;;;2.90;2.70;;;27.30;43.00;;;;;;4984663;28;20410;-49
2022/08/01 02:52:49;;;;;;;3.30;3.10;;;27.20;43.00;;;;;;4978494;28;20448;-46
2022/08/01 02:55:16;;;;;;;3.30;3.00;;;27.10;43.20;;;;;;4980358;28;20446;-49
2022/08/01 02:57:43;;;;;;;3.27;3.07;;;27.10;43.30;;;;;;4985314;28;20568;-46
2022/08/01 03:00:10;;;;;;;3.40;3.10;;;27.10;43.50;;;;;;4981865;28;20438;-45
2022/08/01 03:02:36;;;;;;;6.37;2.70;;;27.10;43.60;;;;;;4982022;28;20478;-46
2022/08/01 03:05:02;;;;;;;4.23;2.80;;;27.10;43.60;;;;;;4989364;28;20469;-46
2022/08/01 03:07:29;;;;;;;3.33;3.03;;;27.10;43.50;;;;;;4990650;28;20781;-46
2022/08/01 03:09:57;;;;;;;2.90;2.70;;;27.10;43.60;;;;;;4988807;28;20449;-46
2022/08/01 03:12:27;;;;;;;2.83;2.63;;;27.00;43.80;;;;;;4986603;28;20537;-48
2022/08/01 03:14:56;;;;;;;3.30;3.00;;;27.00;44.00;;;;;;4979588;28;20470;-46
2022/08/01 03:17:27;;;;;;;3.13;2.93;;;27.00;44.60;;;;;;4976173;28;20608;-48
2022/08/01 03:19:55;;;;;;;3.00;2.80;;;27.10;44.00;;;;;;4986277;28;20450;-45
2022/08/01 03:22:24;;;;;;;2.80;2.40;;;27.00;44.10;;;;;;4978728;28;20442;-46
2022/08/01 03:24:52;;;;;;;3.43;3.13;;;27.00;44.10;;;;;;4976272;28;20564;-47
2022/08/01 03:27:21;;;;;;;3.70;3.40;;;27.20;43.50;;;;;;4980406;28;20846;-47
2022/08/01 03:29:52;;;;;;;3.77;3.43;;;27.40;43.30;;;;;;4981118;28;21008;-45
2022/08/01 03:32:20;;;;;;;3.00;2.80;;;27.40;43.10;;;;;;4977457;28;20454;-49
2022/08/01 03:34:46;;;;;;;3.03;2.83;;;27.40;43.20;;;;;;4977357;28;20502;-47
2022/08/01 03:37:24;;;;;;;3.80;3.50;;;27.30;43.30;;;;;;4980533;28;20453;-47
2022/08/01 03:39:57;;;;;;;3.57;3.27;;;27.30;43.60;;;;;;4981748;28;20461;-46
2022/08/01 03:42:30;;;;;;;3.40;3.20;;;27.10;43.80;;;;;;4986256;28;20467;-46
2022/08/01 03:45:02;;;;;;;3.60;3.30;;;27.00;44.00;;;;;;4978463;28;20474;-45
2022/08/01 03:47:33;;;;;;;3.63;3.33;;;27.00;44.00;;;;;;4977840;28;20945;-47
2022/08/01 03:50:00;;;;;;;3.20;2.90;;;27.00;44.10;;;;;;4985405;28;20500;-45
2022/08/01 03:52:29;;;;;;;3.83;3.53;;;27.00;44.30;;;;;;4980919;28;20443;-46
2022/08/01 03:54:57;;;;;;;3.90;3.60;;;26.90;44.30;;;;;;4981013;28;20444;-46
2022/08/01 03:57:28;;;;;;;3.40;3.10;;;26.80;44.40;;;;;;4978051;28;20439;-46
2022/08/01 03:59:55;;;;;;;3.60;3.30;;;26.80;44.70;;;;;;4982863;28;20819;-49
2022/08/01 04:02:26;;;;;;;4.43;3.03;;;26.70;44.80;;;;;;4984729;28;21110;-45
2022/08/01 04:04:51;;;;;;;4.07;3.77;;;26.70;44.90;;;;;;4982973;28;20484;-48
2022/08/01 04:07:47;;;;;;;3.03;2.83;;;26.70;44.90;;;;;;4980901;28;20820;-46
2022/08/01 04:10:13;;;;;;;3.50;3.20;;;26.70;45.00;;;;;;4976324;28;20235;-45
2022/08/01 04:12:39;;;;;;;3.80;3.50;;;26.70;45.20;;;;;;4987066;28;20480;-46
2022/08/01 04:15:05;;;;;;;4.20;3.27;;;26.70;45.10;;;;;;4987788;28;20445;-47
2022/08/01 04:17:34;;;;;;;3.73;3.43;;;26.70;45.20;;;;;;4983558;28;20261;-44
2022/08/01 04:19:59;;;;;;;3.83;3.53;;;26.60;45.40;;;;;;4990001;28;20503;-45
2022/08/01 04:22:26;;;;;;;3.93;3.63;;;26.60;45.50;;;;;;4984454;28;20449;-45
2022/08/01 04:24:55;;;;;;;3.37;3.07;;;26.50;45.70;;;;;;4977790;28;20230;-47
2022/08/01 04:27:31;;;;;;;3.67;3.37;;;26.50;45.70;;;;;;4987435;28;20560;-46
2022/08/01 04:29:59;;;;;;;3.60;3.30;;;26.50;45.80;;;;;;4985695;28;20540;-47
2022/08/01 04:32:28;;;;;;;3.47;3.17;;;26.50;46.00;;;;;;4988652;28;20564;-45
2022/08/01 04:34:56;;;;;;;3.20;3.00;;;26.50;46.10;;;;;;4981703;28;20541;-45
2022/08/01 04:37:25;;;;;;;3.50;3.30;;;26.60;46.00;;;;;;4987580;28;20450;-48
2022/08/01 04:39:54;;;;;;;4.10;3.80;;;26.60;46.00;;;;;;4985333;28;20493;-45
2022/08/01 04:42:22;;;;;;;3.80;3.50;;;26.60;46.10;;;;;;4984702;28;20497;-46
2022/08/01 04:44:50;;;;;;;3.90;3.60;;;26.60;46.30;;;;;;4986848;28;20460;-47
2022/08/01 04:47:17;;;;;;;6.77;3.70;;;26.60;46.40;;;;;;4986259;28;20453;-45
2022/08/01 04:49:45;;;;;;;3.40;3.10;;;26.50;46.40;;;;;;4987351;28;20493;-48
2022/08/01 04:52:11;;;;;;;3.83;3.47;;;26.60;46.40;;;;;;4988402;28;20489;-48
2022/08/01 04:54:37;;;;;;;4.03;3.70;;;26.60;46.20;;;;;;4986644;28;20441;-46
2022/08/01 04:57:05;;;;;;;4.03;3.63;;;26.70;46.20;;;;;;4987474;28;20503;-46
2022/08/01 04:59:41;;;;;;;3.43;3.07;;;26.70;46.10;;;;;;4988419;28;20962;-46
2022/08/01 05:02:11;;;;;;;3.97;3.60;;;26.70;46.00;;;;;;4983518;28;20453;-51
2022/08/01 05:04:38;;;;;;;3.90;3.50;;;26.80;46.00;;;;;;4978153;28;20532;-47
2022/08/01 05:07:04;;;;;;;9.33;3.70;;;26.80;46.10;;;;;;4983483;28;20531;-46
2022/08/01 05:09:33;;;;;;;4.27;3.87;;;26.90;46.20;;;;;;4979721;28;20443;-45
2022/08/01 05:12:00;;;;;;;3.77;3.40;;;27.00;46.30;;;;;;4980948;28;20445;-49
2022/08/01 05:14:27;;;;;;;3.80;3.40;;;26.90;46.90;;;;;;4981367;28;20504;-48
2022/08/01 05:16:53;;;;;;;3.70;3.23;;;27.00;46.50;;;;;;4983293;28;20467;-51
2022/08/01 05:19:19;;;;;;;6.60;3.70;;;27.10;46.30;;;;;;4985928;28;20442;-45
2022/08/01 05:21:44;;;;;;;4.00;3.70;;;27.10;46.50;;;;;;4983495;28;20286;-47
2022/08/01 05:24:10;;;;;;;4.77;3.77;;;27.20;46.70;;;;;;4981020;28;20524;-46
2022/08/01 05:26:36;;;;;;;6.20;3.30;;;27.20;46.70;;;;;;4985233;28;20277;-49
2022/08/01 05:29:01;;;;;;;4.37;3.90;;;27.30;46.50;;;;;;4984692;28;20203;-47
2022/08/01 05:31:28;;;;;;;4.40;4.00;;;27.30;46.30;;;;;;4976459;28;20691;-47
2022/08/01 05:33:53;;;;;;;16.50;4.17;;;27.40;46.20;;;;;;4983064;28;20560;-47
2022/08/01 05:36:19;;;;;;;3.57;3.30;;;27.50;46.30;;;;;;4980418;28;20453;-47
2022/08/01 05:38:45;;;;;;;5.20;3.90;;;27.50;46.20;;;;;;4978158;28;20195;-46
2022/08/01 05:41:11;;;;;;;5.63;4.00;;;27.50;46.20;;;;;;4974686;28;20203;-47
2022/08/01 05:43:36;;;;;;;3.93;3.63;;;27.60;46.10;;;;;;4984685;28;20570;-48
2022/08/01 05:46:02;;;;;;;4.17;3.87;;;27.60;46.10;;;;;;4986548;28;20633;-47
2022/08/01 05:48:28;;;;;;;3.47;3.17;;;27.70;46.30;;;;;;4980247;28;20230;-47
2022/08/01 05:50:54;;;;;;;4.60;3.70;;;27.70;46.30;;;;;;4982048;28;20721;-49
2022/08/01 05:53:20;;;;;;;3.33;3.13;;;27.70;46.20;;;;;;4983240;28;20213;-47
2022/08/01 05:55:46;;;;;;;3.07;2.83;;;27.70;46.20;;;;;;4985381;28;20934;-46
2022/08/01 05:58:11;;;;;;;3.37;3.07;;;27.80;46.10;;;;;;4987340;28;20198;-49
2022/08/01 06:00:37;;;;;;;3.03;2.83;;;27.80;46.00;;;;;;4985727;28;20654;-46
2022/08/01 06:03:03;;;;;;;3.50;3.20;;;27.80;46.10;;;;;;4985169;28;20202;-51
2022/08/01 06:05:28;;;;;;;3.47;2.97;;;27.80;46.10;;;;;;4981136;28;20218;-47
2022/08/01 06:07:54;;;;;;;3.37;3.10;;;27.80;46.40;;;;;;4988871;28;20835;-47
2022/08/01 06:10:19;;;;;;;3.77;3.47;;;27.80;46.60;;;;;;4984644;28;20210;-47
2022/08/01 06:12:45;;;;;;;7.23;3.10;;;27.80;46.40;;;;;;4986509;28;20249;-46
2022/08/01 06:15:11;;;;;;;3.30;3.10;;;27.90;46.40;;;;;;4979956;28;20231;-48
2022/08/01 06:17:37;;;;;;;4.30;3.30;;;27.80;46.50;;;;;;4973945;28;20249;-50
2022/08/01 06:20:03;;;;;;;4.10;3.70;;;27.90;46.70;;;;;;4976564;28;20462;-46
2022/08/01 06:22:29;;;;;;;3.77;3.47;;;28.00;46.50;;;;;;4976877;28;20209;-46
2022/08/01 06:24:55;;;;;;;5.80;3.50;;;28.10;46.50;;;;;;4986858;28;20855;-48
2022/08/01 06:27:21;;;;;;;5.80;3.30;;;28.20;46.30;;;;;;4976544;28;20222;-47
2022/08/01 06:29:46;;;;;;;4.73;2.90;;;28.30;46.10;;;;;;4981846;28;20452;-47
2022/08/01 06:32:12;;;;;;;3.60;2.97;;;28.50;46.00;;;;;;4975176;28;20758;-46
2022/08/01 06:34:37;;;;;;;3.43;2.97;;;28.60;45.80;;;;;;4988063;28;20249;-51
2022/08/01 06:37:03;;;;;;;3.43;2.77;;;28.70;45.60;;;;;;4984936;28;20294;-47
2022/08/01 06:39:29;;;;;;;2.80;2.60;;;28.80;45.60;;;;;;4979104;28;20205;-47
2022/08/01 06:41:54;;;;;;;5.83;1.90;;;28.90;45.40;;;;;;4989625;28;20264;-47
2022/08/01 06:44:20;;;;;;;2.93;2.20;;;29.00;45.40;;;;;;4975809;28;20191;-49
2022/08/01 06:46:45;;;;;;;1.73;1.63;;;29.10;45.40;;;;;;4990178;28;20578;-51
2022/08/01 06:49:11;;;;;;;1.93;1.73;;;29.10;45.60;;;;;;4984278;28;20225;-51
2022/08/01 06:51:36;;;;;;;1.63;1.53;;;29.00;45.60;;;;;;4981379;28;20564;-49
2022/08/01 06:54:02;;;;;;;2.40;2.00;;;29.00;45.50;;;;;;4979065;28;20209;-48
2022/08/01 06:56:28;;;;;;;2.00;1.90;;;28.70;45.80;;;;;;4987812;28;20206;-47
2022/08/01 06:59:00;;;;;;;2.70;1.93;;;28.80;45.80;;;;;;4987981;28;20199;-51
2022/08/01 07:01:26;;;;;;;2.60;1.67;;;28.90;45.50;;;;;;4975173;28;20621;-48
2022/08/01 07:03:52;;;;;;;2.50;2.30;;;29.10;45.50;;;;;;4988380;28;20442;-49
2022/08/01 07:06:18;;;;;;;2.40;2.10;;;29.20;45.10;;;;;;4989153;28;20496;-47
2022/08/01 07:08:43;;;;;;;1.80;1.70;;;29.30;44.90;;;;;;4990692;28;20217;-47
2022/08/01 07:11:09;;;;;;;3.23;2.10;;;29.40;44.60;;;;;;4990617;28;20910;-48
2022/08/01 07:13:34;;;;;;;1.73;1.63;;;29.50;44.70;;;;;;4991926;28;20201;-49
2022/08/01 07:16:00;;;;;;;1.70;1.60;;;29.50;44.50;;;;;;4989285;28;20195;-47
2022/08/01 07:18:26;;;;;;;2.20;1.90;;;29.60;44.50;;;;;;4992806;28;20249;-48
2022/08/01 07:20:54;;;;;;;2.50;1.90;;;29.80;44.00;;;;;;4985073;28;20199;-54
2022/08/01 07:23:20;;;;;;;2.43;2.03;;;29.90;43.50;;;;;;4991229;28;20206;-48
2022/08/01 07:25:47;;;;;;;2.40;1.73;;;29.90;43.80;;;;;;4984120;28;21023;-47
2022/08/01 07:28:25;;;;;;;2.03;1.73;;;29.90;43.50;;;;;;4987165;28;20717;-52
2022/08/01 07:30:51;;;;;;;1.80;1.70;;;30.00;43.60;;;;;;4987964;28;20500;-49
2022/08/01 07:33:17;;;;;;;2.00;1.90;;;30.10;43.20;;;;;;4984232;28;21290;-47
2022/08/01 07:35:42;;;;;;;2.10;1.90;;;30.10;43.40;;;;;;4981443;28;20204;-49
2022/08/01 07:38:11;;;;;;;2.30;1.77;;;30.20;43.40;;;;;;4990863;28;20539;-47
2022/08/01 07:40:36;;;;;;;1.87;1.57;;;30.20;43.00;;;;;;4989760;28;20195;-49
2022/08/01 07:43:02;;;;;;;3.07;1.80;;;30.30;42.90;;;;;;4992698;28;20436;-50
2022/08/01 07:45:28;;;;;;;2.10;2.00;;;30.50;42.60;;;;;;4991871;28;20281;-47
2022/08/01 07:47:54;;;;;;;3.93;2.00;;;30.60;42.50;;;;;;4975500;28;20318;-47
2022/08/01 07:50:19;;;;;;;1.80;1.70;;;30.60;42.20;;;;;;4989444;28;20198;-47
2022/08/01 07:52:45;;;;;;;2.30;2.10;;;30.60;42.50;;;;;;4980992;28;20215;-51
2022/08/01 07:55:11;;;;;;;2.50;2.23;;;30.80;42.50;;;;;;4988133;28;20222;-51
2022/08/01 07:57:39;;;;;;;2.23;1.80;;;30.90;42.40;;;;;;4975515;28;20203;-52
2022/08/01 08:00:07;;;;;;;2.37;1.63;;;31.10;41.90;;;;;;4988927;28;20921;-49
2022/08/01 08:02:35;;;;;;;1.90;1.80;;;31.20;41.70;;;;;;4981384;28;20540;-51
2022/08/01 08:05:00;;;;;;;5.93;1.87;;;31.00;41.30;;;;;;4968908;28;20478;-48
2022/08/01 08:07:26;;;;;;;2.53;1.97;;;31.10;41.50;;;;;;4993153;28;20766;-50
2022/08/01 08:09:52;;;;;;;2.27;2.07;;;31.10;41.40;;;;;;4981409;28;20214;-49
2022/08/01 08:12:18;;;;;;;2.30;1.90;;;31.10;41.30;;;;;;4982558;28;20234;-48
2022/08/01 08:14:43;;;;;;;3.00;2.17;;;31.10;41.30;;;;;;4990601;28;20450;-50
2022/08/01 08:17:09;;;;;;;3.97;2.00;;;31.00;41.50;;;;;;4982959;28;20201;-48
2022/08/01 08:19:37;;;;;;;3.80;2.23;;;31.10;41.50;;;;;;4980766;28;20278;-49
2022/08/01 08:22:03;;;;;;;1.90;1.80;;;31.20;41.50;;;;;;4985474;28;20199;-49
2022/08/01 08:24:31;;;;;;;2.23;2.03;;;31.50;41.40;;;;;;4982461;28;20445;-46
2022/08/01 08:26:58;;;;;;;2.43;2.23;;;31.70;40.60;;;;;;4983677;28;20238;-50
2022/08/01 08:29:26;;;;;;;4.20;2.10;;;31.80;40.30;;;;;;4988619;28;20449;-51
2022/08/01 08:31:54;;;;;;;2.10;2.00;;;31.80;40.20;;;;;;4990367;28;20540;-47
2022/08/01 08:34:20;;;;;;;2.20;1.93;;;31.70;40.50;;;;;;4979677;28;20465;-51
2022/08/01 08:36:46;;;;;;;7.37;2.70;;;31.70;40.60;;;;;;4987220;28;20442;-47
2022/08/01 08:39:12;;;;;;;9.73;2.37;;;31.70;40.50;;;;;;4986240;28;20830;-51
2022/08/01 08:41:37;;;;;;;4.00;2.13;;;31.70;40.70;;;;;;4981321;28;20195;-51
2022/08/01 08:44:05;;;;;;;4.90;1.97;;;31.70;40.80;;;;;;4986503;28;20631;-50
2022/08/01 08:46:34;;;;;;;3.80;2.23;;;31.70;40.60;;;;;;4986259;28;20222;-48
2022/08/01 08:49:03;;;;;;;17.10;2.40;;;31.90;40.40;;;;;;4971565;28;20992;-45
2022/08/01 08:51:33;;;;;;;4.03;2.57;;;31.90;40.20;;;;;;4979497;28;20501;-49
2022/08/01 08:54:03;;;;;;;2.33;2.20;;;32.00;40.20;;;;;;4985327;28;22264;-48
2022/08/01 08:56:34;;;;;;;3.53;2.93;;;32.10;39.90;;;;;;4983651;28;20449;-51
2022/08/01 08:59:11;;;;;;;2.20;2.10;;;32.30;39.50;;;;;;4987734;28;20446;-49
2022/08/01 09:01:36;;;;;;;2.80;2.40;;;32.00;39.80;;;;;;4983574;28;20540;-50
2022/08/01 09:04:03;;;;;;;2.20;2.10;;;31.90;40.20;;;;;;4981223;28;20900;-47
2022/08/01 09:06:29;;;;;;;2.07;1.97;;;31.90;40.20;;;;;;4982657;28;20579;-47
2022/08/01 09:08:56;;;;;;;2.40;2.20;;;32.20;40.10;;;;;;4987927;28;20453;-49
2022/08/01 09:11:22;;;;;;;2.10;1.90;;;32.40;40.30;;;;;;4982416;28;20596;-48
2022/08/01 09:14:11;;;;;;;3.13;2.00;;;32.50;39.30;;;;;;4986163;28;20816;-51
2022/08/01 09:16:41;;;;;;;2.50;2.30;;;32.70;39.10;;;;;;4985013;28;20226;-51
2022/08/01 09:19:12;;;;;;;2.50;2.30;;;32.70;38.90;;;;;;4979371;28;20517;-48
2022/08/01 09:21:39;;;;;;;4.80;2.20;;;32.80;38.50;;;;;;4985570;28;20457;-51
2022/08/01 09:24:14;;;;;;;2.73;2.20;;;33.00;38.10;;;;;;4982709;28;20916;-48
2022/08/01 09:26:40;;;;;;;2.63;2.43;;;32.90;38.00;;;;;;4987151;28;20489;-52
2022/08/01 09:29:16;;;;;;;2.17;2.07;;;32.90;38.00;;;;;;4979312;28;20471;-49
2022/08/01 09:31:44;;;;;;;4.07;2.10;;;33.00;37.70;;;;;;4981521;28;20486;-52
2022/08/01 09:34:10;;;;;;;3.93;2.87;;;32.90;37.80;;;;;;4982525;28;20446;-50
2022/08/01 09:36:51;;;;;;;3.23;2.77;;;32.90;37.70;;;;;;4988829;28;20825;-51
2022/08/01 09:39:23;;;;;;;2.63;2.40;;;32.90;37.90;;;;;;4983802;28;20927;-50
2022/08/01 09:41:48;;;;;;;2.60;2.40;;;32.90;37.50;;;;;;4984705;28;20582;-47
2022/08/01 09:44:17;;;;;;;2.60;2.40;;;33.10;37.70;;;;;;4982843;28;20533;-51
2022/08/01 09:46:55;;;;;;;4.30;2.63;;;33.30;37.80;;;;;;4976329;28;20230;-51
2022/08/01 09:49:33;;;;;;;5.30;2.80;;;33.40;37.00;;;;;;4982313;28;20809;-53
2022/08/01 09:52:09;;;;;;;3.07;2.87;;;33.20;36.50;;;;;;4980643;28;20469;-48
2022/08/01 09:54:35;;;;;;;3.20;3.00;;;33.00;37.10;;;;;;4989808;28;20452;-52
2022/08/01 09:57:14;;;;;;;3.20;3.00;;;33.10;37.60;;;;;;4987357;28;20942;-52
2022/08/01 09:59:44;;;;;;;4.03;3.63;;;33.20;37.10;;;;;;4980399;28;20794;-50
2022/08/01 10:02:13;;;;;;;3.80;3.50;;;33.30;36.90;;;;;;4982958;28;20804;-50
2022/08/01 10:04:57;;;;;;;3.70;3.37;;;33.40;36.60;;;;;;4981768;28;20493;-47
2022/08/01 10:07:23;;;;;;;3.80;3.60;;;33.80;36.60;;;;;;4978336;28;20450;-52
2022/08/01 10:09:49;;;;;;;4.93;3.50;;;33.70;36.30;;;;;;4988964;28;20448;-50
2022/08/01 10:12:20;;;;;;;4.30;3.90;;;34.00;36.10;;;;;;4979653;28;20315;-52
2022/08/01 10:14:49;;;;;;;4.90;3.87;;;34.10;35.80;;;;;;4974571;28;20207;-48
2022/08/01 10:17:17;;;;;;;4.87;3.63;;;34.40;35.60;;;;;;4978127;28;20452;-51
2022/08/01 10:19:43;;;;;;;4.23;3.93;;;34.60;35.00;;;;;;4985026;28;20446;-48
2022/08/01 10:22:16;;;;;;;4.50;3.33;;;34.90;35.10;;;;;;4977807;28;20522;-48
2022/08/01 10:25:04;;;;;;;4.77;4.40;;;34.90;35.00;;;;;;4980076;28;20964;-51
2022/08/01 10:27:32;;;;;;;4.17;3.87;;;34.90;34.60;;;;;;4973891;28;20532;-52
2022/08/01 10:30:09;;;;;;;4.10;3.70;;;34.50;34.30;;;;;;4981737;28;20457;-52
2022/08/01 10:32:37;;;;;;;4.60;4.20;;;34.10;34.90;;;;;;4982927;28;20449;-51
2022/08/01 10:35:07;;;;;;;5.53;4.40;;;34.30;35.00;;;;;;4982195;28;20458;-49
2022/08/01 10:37:36;;;;;;;4.03;3.77;;;34.60;34.60;;;;;;4991624;28;20461;-48
2022/08/01 10:40:03;;;;;;;4.37;3.97;;;34.70;33.70;;;;;;4990419;28;20442;-51
2022/08/01 10:42:31;;;;;;;5.10;3.97;;;34.50;34.70;;;;;;4990252;28;20444;-51
2022/08/01 10:44:57;;;;;;;3.70;3.03;;;34.40;34.50;;;;;;4987149;28;20446;-53
2022/08/01 10:47:55;;;;;;;4.67;3.50;;;34.10;34.80;;;;;;4984996;28;20485;-48
2022/08/01 10:50:39;;;;;;;4.03;3.17;;;34.10;34.70;;;;;;4984705;28;20455;-52
2022/08/01 10:53:08;;;;;;;3.77;3.47;;;34.00;34.70;;;;;;4995277;28;20827;-49
2022/08/01 10:55:52;;;;;;;2.80;2.60;;;34.30;34.50;;;;;;4977988;28;20437;-51
2022/08/01 10:58:32;;;;;;;4.10;2.77;;;34.60;33.70;;;;;;4982443;28;20443;-52
2022/08/01 11:01:31;;;;;;;3.33;2.77;;;34.80;33.70;;;;;;4990462;28;20544;-51
2022/08/01 11:04:02;;;;;;;4.13;3.83;;;35.00;33.20;;;;;;4985799;28;20461;-51
2022/08/01 11:06:36;;;;;;;3.73;3.43;;;34.90;33.10;;;;;;4992809;28;20584;-47
2022/08/01 11:09:11;;;;;;;3.87;3.67;;;35.00;33.40;;;;;;4988596;28;20461;-52
2022/08/01 11:12:06;;;;;;;5.27;4.77;;;35.30;32.90;;;;;;4991876;28;20445;-52
2022/08/01 11:14:33;;;;;;;3.27;3.07;;;35.40;32.10;;;;;;4992187;28;20445;-48
2022/08/01 11:17:30;;;;;;;3.53;3.33;;;35.30;32.00;;;;;;4986939;28;20439;-52
2022/08/01 11:20:15;;;;;;;2.77;2.57;;;35.30;32.10;;;;;;4985794;28;20488;-52
2022/08/01 11:23:06;;;;;;;4.27;3.23;;;35.20;32.40;;;;;;4984030;28;22249;-47
2022/08/01 11:25:37;;;;;;;3.17;2.97;;;35.20;31.80;;;;;;4992886;28;20477;-50
2022/08/01 11:28:19;;;;;;;2.87;2.67;;;34.90;32.10;;;;;;4978642;28;20565;-52
2022/08/01 11:30:47;;;;;;;3.33;3.13;;;35.00;32.80;;;;;;4983250;28;20453;-48
2022/08/01 11:33:14;;;;;;;3.97;3.00;;;35.30;32.60;;;;;;4986909;28;20949;-50
2022/08/01 11:36:21;;;;;;;3.13;2.83;;;35.40;32.30;;;;;;4987888;28;20438;-49
2022/08/01 11:39:10;;;;;;;3.97;3.13;;;35.50;31.60;;;;;;4988877;28;20457;-51
2022/08/01 11:41:36;;;;;;;3.10;2.73;;;35.30;31.50;;;;;;4985405;28;20516;-52
2022/08/01 11:44:06;;;;;;;3.00;2.80;;;35.20;31.70;;;;;;4989363;28;20535;-50
2022/08/01 11:46:50;;;;;;;3.40;3.20;;;35.40;32.10;;;;;;4992145;28;20508;-52
2022/08/01 11:49:44;;;;;;;3.17;2.87;;;35.40;31.90;;;;;;4987356;28;21015;-51
2022/08/01 11:52:16;;;;;;;2.93;2.73;;;35.40;31.80;;;;;;4987974;28;20539;-51
2022/08/01 11:54:53;;;;;;;2.80;2.57;;;35.40;32.00;;;;;;4986605;28;21101;-49
2022/08/01 11:57:24;;;;;;;3.33;2.67;;;35.60;32.30;;;;;;4988208;28;20449;-52
2022/08/01 11:59:55;;;;;;;3.00;2.80;;;35.80;31.90;;;;;;4985176;28;20497;-51
2022/08/01 12:02:26;;;;;;;2.97;2.77;;;35.90;31.60;;;;;;4983788;28;20854;-51
2022/08/01 12:05:10;;;;;;;3.00;2.80;;;35.90;32.10;;;;;;4988209;28;21080;-53
2022/08/01 12:07:36;;;;;;;3.00;2.80;;;36.00;31.20;;;;;;4986586;28;20962;-52
2022/08/01 12:10:17;;;;;;;2.80;2.60;;;35.80;31.10;;;;;;4987725;28;20690;-52
2022/08/01 12:12:48;;;;;;;3.07;2.87;;;35.50;31.60;;;;;;4977859;28;20465;-52
2022/08/01 12:15:14;;;;;;;3.77;2.83;;;35.60;31.10;;;;;;4981670;28;20472;-53
2022/08/01 12:17:44;;;;;;;2.77;2.67;;;35.60;31.30;;;;;;4984910;28;20501;-52
2022/08/01 12:20:14;;;;;;;5.93;2.83;;;35.70;31.20;;;;;;4990332;28;20596;-51
2022/08/01 12:22:40;;;;;;;2.73;2.53;;;35.90;31.40;;;;;;4981625;28;20442;-52
2022/08/01 12:25:16;;;;;;;5.37;2.50;;;36.10;31.30;;;;;;4980332;28;20464;-53
2022/08/01 12:27:44;;;;;;;2.50;2.40;;;36.30;31.10;;;;;;4983043;28;20613;-53
2022/08/01 12:30:12;;;;;;;2.70;2.50;;;36.20;30.80;;;;;;4991192;28;20445;-50
2022/08/01 12:32:39;;;;;;;2.90;2.70;;;36.30;31.20;;;;;;4992537;28;20430;-52
2022/08/01 12:35:17;;;;;;;2.70;2.30;;;36.40;30.10;;;;;;4987963;28;20940;-50
2022/08/01 12:37:52;;;;;;;2.70;2.50;;;36.50;30.40;;;;;;4983605;28;20456;-52
2022/08/01 12:40:20;;;;;;;3.20;3.00;;;36.60;29.90;;;;;;4989684;28;20445;-51
2022/08/01 12:42:55;;;;;;;2.30;2.20;;;36.40;29.80;;;;;;4987961;28;20450;-49
2022/08/01 12:45:23;;;;;;;2.90;2.60;;;36.60;30.00;;;;;;4981273;28;20593;-51
2022/08/01 12:47:50;;;;;;;6.80;2.87;;;36.50;30.00;;;;;;4979299;28;20440;-51
2022/08/01 12:50:19;;;;;;;2.97;2.50;;;36.60;29.80;;;;;;4986990;28;20562;-52
2022/08/01 12:52:45;;;;;;;3.30;3.10;;;36.40;30.20;;;;;;4988877;28;20445;-52
2022/08/01 12:55:17;;;;;;;4.23;2.97;;;36.10;30.20;;;;;;4986844;28;20441;-52
2022/08/01 12:57:52;;;;;;;2.83;2.63;;;36.10;30.60;;;;;;4983167;28;20450;-52
2022/08/01 13:00:23;;;;;;;2.50;2.30;;;36.10;30.60;;;;;;4979595;28;20453;-51